Time;durP1;ratioP1;P1;durP2;ratioP2;P2;SDS_P1;SDS_P2;PMS_P1;PMS_P2;Temp;Humidity;BMP_temperature;BMP_pressure;BME280_temperature;BME280_humidity;BME280_pressure;Samples;Min_cycle;Max_cycle;Signal;HPM_P1;HPM_P2
2022/10/04 00:00:23;;;;;;;5.13;3.10;;;;;;;22.64;54.86;98232.06;5034467;28;20198;-25
2022/10/04 00:02:50;;;;;;;3.10;2.67;;;;;;;22.63;54.91;98226.06;5033811;28;20205;-25
2022/10/04 00:05:17;;;;;;;3.47;2.90;;;;;;;22.63;54.89;98226.06;5032514;28;20249;-25
2022/10/04 00:07:46;;;;;;;4.23;3.00;;;;;;;22.45;54.80;98192.06;5035120;28;20577;-25
2022/10/04 00:10:23;;;;;;;3.63;3.20;;;;;;;22.61;54.90;98226.81;5032455;28;20193;-25
2022/10/04 00:12:52;;;;;;;3.23;2.93;;;;;;;22.63;54.72;98225.19;5034680;28;20204;-25
2022/10/04 00:15:26;;;;;;;3.30;3.00;;;;;;;22.62;54.97;98224.31;5012582;28;20224;-25
2022/10/04 00:18:11;;;;;;;2.83;2.57;;;;;;;22.63;54.82;98235.44;5033795;28;20209;-25
2022/10/04 00:20:49;;;;;;;3.33;2.90;;;;;;;22.63;55.04;98231.19;5036182;28;20600;-25
2022/10/04 00:23:24;;;;;;;3.40;3.10;;;;;;;22.62;54.80;98229.44;5032687;28;20202;-25
2022/10/04 00:25:51;;;;;;;2.73;2.53;;;;;;;22.63;54.90;98228.63;5022296;28;20723;-25
2022/10/04 00:28:24;;;;;;;3.10;2.80;;;;;;;22.63;54.88;98228.63;5034179;28;20198;-25
2022/10/04 00:31:17;;;;;;;3.30;2.93;;;;;;;22.62;54.96;98221.75;5034237;28;20204;-25
2022/10/04 00:33:48;;;;;;;2.90;2.70;;;;;;;22.58;54.68;98219.03;5025255;28;20221;-25
2022/10/04 00:36:23;;;;;;;2.97;2.77;;;;;;;22.63;54.66;98231.19;5043588;28;20221;-25
2022/10/04 00:39:08;;;;;;;3.40;3.10;;;;;;;22.63;54.78;98231.19;5035910;28;20748;-25
2022/10/04 00:41:47;;;;;;;4.53;3.13;;;;;;;22.63;54.83;98231.19;5036177;28;20228;-25
2022/10/04 00:44:37;;;;;;;3.30;2.77;;;;;;;22.63;54.82;98210.69;5028643;28;20197;-25
2022/10/04 00:47:20;;;;;;;3.10;2.90;;;;;;;22.51;55.03;98200.00;5035349;28;20200;-25
2022/10/04 00:49:48;;;;;;;2.70;2.50;;;;;;;22.58;54.70;98212.22;5030722;28;20208;-25
2022/10/04 00:52:18;;;;;;;3.10;2.80;;;;;;;22.46;54.73;98222.00;5027518;28;20204;-25
2022/10/04 00:54:49;;;;;;;3.27;2.97;;;;;;;22.63;54.94;98214.94;5031135;28;20217;-25
2022/10/04 00:57:28;;;;;;;3.40;3.10;;;;;;;22.62;54.68;98215.78;5013218;28;20355;-25
2022/10/04 01:00:01;;;;;;;2.70;2.50;;;;;;;22.60;54.72;98225.97;5029071;28;20575;-25
2022/10/04 01:02:52;;;;;;;2.80;2.60;;;;;;;22.61;54.83;98220.00;5029966;28;20549;-25
2022/10/04 01:05:29;;;;;;;2.97;2.70;;;;;;;22.63;54.83;98217.50;5021195;28;20218;-25
2022/10/04 01:08:07;;;;;;;3.20;2.90;;;;;;;22.62;54.84;98220.91;5030770;28;20208;-25
2022/10/04 01:10:45;;;;;;;3.00;2.70;;;;;;;22.62;54.71;98220.91;5031571;28;20201;-25
2022/10/04 01:13:15;;;;;;;3.00;2.50;;;;;;;22.61;54.79;98217.44;5030536;28;20197;-25
2022/10/04 01:15:48;;;;;;;3.53;3.00;;;;;;;22.58;54.60;98206.22;5014841;28;20241;-25
2022/10/04 01:18:17;;;;;;;2.93;2.50;;;;;;;22.62;54.91;98226.03;5030197;28;20277;-25
2022/10/04 01:20:47;;;;;;;2.57;2.37;;;;;;;22.61;54.80;98220.00;5032670;28;20202;-25
2022/10/04 01:23:42;;;;;;;2.77;2.57;;;;;;;22.57;54.77;98199.34;5032162;28;20208;-25
2022/10/04 01:26:31;;;;;;;3.13;2.60;;;;;;;22.62;54.87;98200.41;5025237;28;20222;-25
2022/10/04 01:29:11;;;;;;;3.20;2.70;;;;;;;22.57;55.01;98182.31;5031635;28;20229;-25
2022/10/04 01:31:42;;;;;;;3.10;2.73;;;;;;;22.62;54.83;98193.56;5030120;28;20211;-25
2022/10/04 01:34:12;;;;;;;2.77;2.57;;;;;;;22.47;54.76;98158.84;5011275;28;20766;-25
2022/10/04 01:36:38;;;;;;;2.93;2.60;;;;;;;22.58;54.47;98175.47;5010092;28;20228;-25
2022/10/04 01:39:05;;;;;;;3.10;2.77;;;;;;;22.51;54.60;98169.28;5028018;28;20204;-25
2022/10/04 01:42:07;;;;;;;2.47;2.27;;;;;;;22.45;54.75;98161.34;5029625;28;20197;-25
2022/10/04 01:44:38;;;;;;;3.10;2.80;;;;;;;22.61;54.81;98189.28;5030906;28;20203;-25
2022/10/04 01:47:08;;;;;;;3.07;2.77;;;;;;;22.55;54.83;98168.56;5030022;28;20587;-25
2022/10/04 01:49:35;;;;;;;2.70;2.50;;;;;;;22.39;54.68;98143.19;5029956;28;20205;-25
2022/10/04 01:52:19;;;;;;;2.90;2.70;;;;;;;22.61;54.69;98171.34;5011819;28;20202;-25
2022/10/04 01:54:48;;;;;;;2.83;2.63;;;;;;;22.62;54.74;98167.09;5026573;28;20591;-25
2022/10/04 01:57:20;;;;;;;2.70;2.50;;;;;;;22.55;54.71;98149.75;5011445;28;20201;-25
2022/10/04 01:59:53;;;;;;;3.20;2.90;;;;;;;22.58;54.71;98152.41;5017825;28;20209;-25
2022/10/04 02:02:38;;;;;;;2.73;2.50;;;;;;;22.57;54.73;98153.25;5032374;28;20205;-25
2022/10/04 02:05:06;;;;;;;2.57;2.23;;;;;;;22.61;54.69;98158.53;5030122;28;20220;-25
2022/10/04 02:07:32;;;;;;;3.10;2.33;;;;;;;22.62;54.33;98167.94;5014135;28;20236;-25
2022/10/04 02:10:01;;;;;;;2.83;2.63;;;;;;;22.62;54.38;98169.66;5019819;28;20198;-25
2022/10/04 02:12:30;;;;;;;3.10;2.80;;;;;;;22.44;54.70;98146.75;5010310;28;20571;-25
2022/10/04 02:14:58;;;;;;;2.83;2.57;;;;;;;22.62;54.66;98187.59;5029699;28;20259;-25
2022/10/04 02:17:27;;;;;;;2.67;2.47;;;;;;;22.57;54.71;98177.19;5033774;28;20285;-25
2022/10/04 02:19:53;;;;;;;2.90;2.53;;;;;;;22.62;54.87;98173.06;5024860;28;20221;-25
2022/10/04 02:22:20;;;;;;;2.63;2.43;;;;;;;22.62;54.83;98161.97;5031493;28;20198;-25
2022/10/04 02:24:47;;;;;;;2.63;2.43;;;;;;;22.52;54.75;98152.19;5018457;28;20194;-25
2022/10/04 02:27:13;;;;;;;3.13;2.60;;;;;;;22.62;54.92;98177.34;5014725;28;20208;-25
2022/10/04 02:29:40;;;;;;;2.67;2.47;;;;;;;22.61;54.93;98168.78;5029887;28;20614;-25
2022/10/04 02:34:53;;;;;;;3.97;2.60;;;;;;;22.62;54.80;98173.06;5030359;28;20236;-25
2022/10/04 02:37:21;;;;;;;2.73;2.53;;;;;;;22.57;54.84;98166.94;5014086;28;20198;-25
2022/10/04 02:40:11;;;;;;;3.40;2.73;;;;;;;22.59;54.83;98166.97;5011214;28;20260;-25
2022/10/04 02:42:52;;;;;;;2.50;2.30;;;;;;;22.52;54.86;98155.63;5016484;28;20213;-25
2022/10/04 02:45:55;;;;;;;3.17;2.70;;;;;;;22.62;54.71;98170.50;5028173;28;20209;-25
2022/10/04 02:48:31;;;;;;;2.50;2.30;;;;;;;22.45;54.73;98139.97;5024496;28;20501;-25
2022/10/04 02:51:04;;;;;;;2.57;2.37;;;;;;;22.61;54.76;98173.00;5029747;28;20205;-25
2022/10/04 02:53:43;;;;;;;2.70;2.50;;;;;;;22.61;54.55;98158.53;5014156;28;20200;-25
2022/10/04 02:56:11;;;;;;;2.97;2.70;;;;;;;22.42;54.74;98120.25;5014779;28;20218;-25
2022/10/04 02:58:38;;;;;;;2.70;2.50;;;;;;;22.44;54.76;98122.88;5029016;28;20487;-25
2022/10/04 03:01:04;;;;;;;2.87;2.30;;;;;;;22.62;54.74;98162.81;5013843;28;20675;-25
2022/10/04 03:03:45;;;;;;;2.77;2.40;;;;;;;22.57;54.81;98159.25;5030627;28;20197;-25
2022/10/04 03:06:14;;;;;;;2.40;2.20;;;;;;;22.62;54.76;98164.53;5029001;28;20217;-25
2022/10/04 03:09:08;;;;;;;2.77;2.30;;;;;;;22.58;54.71;98162.66;5027884;28;20209;-25
2022/10/04 03:11:37;;;;;;;2.53;2.33;;;;;;;22.43;54.73;98118.53;5009162;28;20673;-25
2022/10/04 03:14:07;;;;;;;2.57;2.37;;;;;;;22.62;54.67;98152.56;5012211;28;20217;-25
2022/10/04 03:16:37;;;;;;;2.60;2.40;;;;;;;22.51;54.65;98142.78;5035213;28;20224;-25
2022/10/04 03:19:04;;;;;;;2.67;2.47;;;;;;;22.43;54.71;98129.66;5028216;28;20205;-25
2022/10/04 03:21:30;;;;;;;2.70;2.50;;;;;;;22.61;54.72;98161.09;5026377;28;20198;-25
2022/10/04 03:23:59;;;;;;;2.37;2.20;;;;;;;22.62;54.69;98164.53;5028855;28;20209;-25
2022/10/04 03:26:35;;;;;;;2.70;2.50;;;;;;;22.61;54.65;98158.53;5056562;22;20742;-31
2022/10/04 03:29:01;;;;;;;2.87;2.30;;;;;;;22.61;54.69;98155.97;5060062;28;20200;-31
2022/10/04 03:31:28;;;;;;;2.60;2.40;;;;;;;22.59;54.75;98152.47;5052066;28;20196;-31
2022/10/04 03:33:55;;;;;;;2.40;2.20;;;;;;;22.62;54.77;98151.72;5045712;28;20207;-31
2022/10/04 03:36:22;;;;;;;2.67;2.47;;;;;;;22.61;54.85;98140.59;5045454;28;20217;-32
2022/10/04 03:38:48;;;;;;;2.30;2.10;;;;;;;22.62;55.02;98138.91;5046616;28;20197;-31
2022/10/04 03:41:15;;;;;;;2.30;2.20;;;;;;;22.56;54.78;98131.84;5033647;28;20565;-31
2022/10/04 03:43:44;;;;;;;3.00;2.70;;;;;;;22.54;54.84;98128.41;5046156;28;20208;-31
2022/10/04 03:46:11;;;;;;;2.50;2.30;;;;;;;22.62;54.48;98138.91;5047661;28;20221;-31
2022/10/04 03:48:49;;;;;;;2.20;2.10;;;;;;;22.62;54.62;98138.91;5042615;28;20270;-31
2022/10/04 03:51:17;;;;;;;2.57;2.37;;;;;;;22.47;54.70;98120.41;5060908;28;20197;-31
2022/10/04 03:53:45;;;;;;;2.50;2.00;;;;;;;22.62;54.68;98141.47;5041200;28;20205;-31
2022/10/04 03:56:17;;;;;;;2.30;2.10;;;;;;;22.56;54.50;98142.09;5050477;28;20220;-31
2022/10/04 03:58:45;;;;;;;2.20;2.10;;;;;;;22.61;54.12;98155.97;5032121;28;20205;-31
2022/10/04 04:01:12;;;;;;;2.50;2.30;;;;;;;22.62;54.58;98169.66;5046816;28;20608;-31
2022/10/04 04:03:54;;;;;;;2.20;2.00;;;;;;;22.62;54.69;98167.09;5048426;28;20201;-31
2022/10/04 04:06:20;;;;;;;2.43;2.27;;;;;;;22.51;54.50;98141.09;5047198;28;20217;-31
2022/10/04 04:08:48;;;;;;;2.43;2.23;;;;;;;21.96;54.58;98047.72;5047797;28;20196;-31
2022/10/04 04:11:25;;;;;;;3.03;2.20;;;;;;;22.62;54.67;98167.09;5033592;28;20220;-31
2022/10/04 04:13:59;;;;;;;2.60;2.40;;;;;;;22.61;54.46;98171.34;5037298;28;20556;-31
2022/10/04 04:16:27;;;;;;;2.30;2.10;;;;;;;22.62;54.68;98161.97;5050984;28;20212;-31
2022/10/04 04:18:54;;;;;;;2.70;2.33;;;;;;;22.61;54.66;98168.78;5039853;28;20261;-31
2022/10/04 04:21:23;;;;;;;2.20;2.10;;;;;;;22.62;54.76;98167.09;5046486;28;20583;-31
2022/10/04 04:23:50;;;;;;;3.00;2.27;;;;;;;22.61;54.76;98165.31;5053025;28;20201;-31
2022/10/04 04:26:16;;;;;;;2.20;2.10;;;;;;;22.61;54.64;98162.75;5054827;28;20224;-31
2022/10/04 04:28:56;;;;;;;2.20;2.10;;;;;;;22.61;54.67;98150.84;5056947;28;20212;-31
2022/10/04 04:31:22;;;;;;;2.20;2.00;;;;;;;22.61;54.64;98161.09;5053663;28;20200;-31
2022/10/04 04:33:59;;;;;;;2.20;2.00;;;;;;;22.58;54.66;98165.22;5052879;28;20220;-31
2022/10/04 04:36:27;;;;;;;2.30;2.10;;;;;;;22.56;54.63;98164.31;5052274;28;20274;-31
2022/10/04 04:41:53;;;;;;;2.00;1.90;;;;;;;22.57;54.73;98160.94;5047617;28;20197;-31
2022/10/04 04:44:20;;;;;;;2.10;2.00;;;;;;;22.61;54.92;98166.22;5045132;28;20234;-31
2022/10/04 04:46:47;;;;;;;2.73;2.20;;;;;;;22.62;54.73;98155.13;5051953;28;20225;-31
2022/10/04 04:49:15;;;;;;;2.40;2.20;;;;;;;22.63;54.67;98149.22;5047870;28;20670;-31
2022/10/04 04:51:46;;;;;;;2.80;2.03;;;;;;;22.63;54.76;98144.09;5049519;28;20202;-31
2022/10/04 04:54:14;;;;;;;2.30;2.10;;;;;;;22.61;54.74;98142.28;5049774;28;20212;-31
2022/10/04 04:56:40;;;;;;;2.10;2.00;;;;;;;22.63;54.61;98143.19;5036797;28;20225;-31
2022/10/04 04:59:07;;;;;;;2.30;2.10;;;;;;;22.63;54.65;98133.84;5053844;28;20204;-31
2022/10/04 05:01:35;;;;;;;2.73;2.07;;;;;;;22.64;54.59;98144.94;5053001;28;20684;-31
2022/10/04 05:04:07;;;;;;;2.10;2.00;;;;;;;22.64;54.88;98142.38;5056572;28;20588;-31
2022/10/04 05:06:35;;;;;;;2.20;2.10;;;;;;;22.65;54.63;98132.19;5046408;28;20229;-31
2022/10/04 05:09:03;;;;;;;2.10;2.00;;;;;;;22.65;54.53;98131.31;5052929;28;20664;-31
2022/10/04 05:11:35;;;;;;;2.53;2.33;;;;;;;22.65;54.54;98139.00;5057601;28;20204;-32
2022/10/04 05:14:10;;;;;;;2.00;1.90;;;;;;;22.64;54.56;98143.25;5041457;28;20200;-31
2022/10/04 05:16:53;;;;;;;2.13;2.00;;;;;;;22.65;54.51;98155.25;5036152;28;20234;-31
2022/10/04 05:19:27;;;;;;;3.23;2.00;;;;;;;22.62;54.39;98146.59;5055539;28;20207;-31
2022/10/04 05:21:54;;;;;;;4.43;2.10;;;;;;;22.64;54.04;98150.06;5036275;28;20205;-31
2022/10/04 05:24:38;;;;;;;2.20;2.00;;;;;;;22.64;54.21;98162.88;5051195;28;20197;-31
2022/10/04 05:27:22;;;;;;;2.40;2.20;;;;;;;22.64;54.25;98139.81;5050880;28;20224;-31
2022/10/04 05:30:07;;;;;;;2.27;1.97;;;;;;;22.64;54.29;98130.44;5053934;28;20201;-31
2022/10/04 05:33:03;;;;;;;2.20;2.00;;;;;;;22.62;54.32;98141.47;5047112;28;20201;-31
2022/10/04 05:35:50;;;;;;;2.13;1.93;;;;;;;22.61;54.47;98157.63;5047934;28;20225;-31
2022/10/04 05:38:34;;;;;;;3.40;2.47;;;;;;;22.63;53.76;98146.66;5037218;28;20200;-31
2022/10/04 05:41:08;;;;;;;3.00;2.47;;;;;;;22.64;52.64;98148.38;5048802;28;20212;-31
2022/10/04 05:43:45;;;;;;;4.13;2.97;;;;;;;22.63;51.80;98146.66;5050765;28;20228;-31
2022/10/04 05:46:19;;;;;;;4.53;3.53;;;;;;;22.63;50.21;98161.13;5047378;28;21017;-31
2022/10/04 05:49:01;;;;;;;5.27;4.20;;;;;;;22.60;49.24;98171.28;5049743;28;20253;-31
2022/10/04 05:51:29;;;;;;;8.10;4.33;;;;;;;22.61;48.05;98171.34;5030265;28;20201;-31
2022/10/04 05:54:00;;;;;;;6.70;4.90;;;;;;;22.56;47.37;98172.84;5048454;28;20205;-31
2022/10/04 05:56:29;;;;;;;6.93;5.00;;;;;;;22.61;47.02;98176.47;5052211;28;20233;-31
2022/10/04 05:59:11;;;;;;;8.97;5.30;;;;;;;22.60;46.77;98168.72;5046881;28;20212;-31
2022/10/04 06:01:55;;;;;;;13.73;6.53;;;;;;;22.58;46.50;98168.66;5048547;28;20595;-31
2022/10/04 06:04:58;;;;;;;11.07;6.07;;;;;;;22.58;46.96;98178.03;5046895;28;20235;-31
2022/10/04 06:07:29;;;;;;;13.77;6.13;;;;;;;22.57;47.60;98187.44;5024302;28;20227;-31
2022/10/04 06:10:01;;;;;;;10.27;5.73;;;;;;;22.56;47.98;98185.66;5031421;28;20209;-31
2022/10/04 06:12:52;;;;;;;10.83;6.23;;;;;;;22.56;48.59;98172.00;5036368;28;20537;-31
2022/10/04 06:15:30;;;;;;;9.87;5.70;;;;;;;22.48;48.83;98148.63;5037583;28;20214;-31
2022/10/04 06:17:56;;;;;;;7.60;5.30;;;;;;;22.54;49.32;98154.00;5048150;28;20271;-31
2022/10/04 06:20:23;;;;;;;8.00;5.17;;;;;;;22.56;49.72;98156.63;5047706;28;20201;-31
2022/10/04 06:22:55;;;;;;;7.20;4.80;;;;;;;22.48;50.10;98142.63;5047844;28;20679;-31
2022/10/04 06:25:25;;;;;;;8.97;5.00;;;;;;;22.55;50.45;98158.31;5060087;28;20287;-31
2022/10/04 06:28:12;;;;;;;8.40;4.43;;;;;;;22.56;50.56;98156.63;5049658;28;20208;-31
2022/10/04 06:31:17;;;;;;;7.37;4.40;;;;;;;22.56;50.79;98161.75;5049783;28;20396;-31
2022/10/04 06:34:31;;;;;;;11.83;6.60;;;;;;;22.56;49.25;98154.06;5044243;28;20201;-31
2022/10/04 06:37:19;;;;;;;16.20;9.37;;;;;;;22.55;47.47;98155.75;5034013;28;20225;-31
2022/10/04 06:39:55;;;;;;;17.67;11.07;;;;;;;22.54;46.52;98156.56;5053755;28;20231;-31
2022/10/04 06:42:57;;;;;;;14.77;9.80;;;;;;;22.53;46.79;98156.53;5042434;28;20204;-31
2022/10/04 06:45:51;;;;;;;14.40;9.53;;;;;;;22.52;47.26;98163.31;5062979;28;20615;-31
2022/10/04 06:48:36;;;;;;;13.93;9.33;;;;;;;22.51;47.77;98169.28;5039365;28;20206;-31
2022/10/04 06:51:39;;;;;;;16.97;9.70;;;;;;;22.51;48.13;98171.84;5036733;28;20209;-31
2022/10/04 06:54:26;;;;;;;18.17;9.10;;;;;;;22.51;48.43;98164.16;5037083;28;20751;-31
2022/10/04 06:57:08;;;;;;;14.30;8.23;;;;;;;22.52;48.98;98170.13;5036201;28;20226;-31
2022/10/04 06:59:41;;;;;;;14.33;9.23;;;;;;;22.52;49.26;98172.69;5039834;28;20218;-31
2022/10/04 07:02:30;;;;;;;14.57;9.07;;;;;;;22.51;49.56;98170.97;5046638;28;20506;-31
2022/10/04 07:05:00;;;;;;;12.53;8.27;;;;;;;22.52;49.40;98173.56;5049259;28;20204;-31
2022/10/04 07:07:36;;;;;;;18.67;8.87;;;;;;;22.51;49.13;98182.09;5051294;28;20204;-31
2022/10/04 07:10:31;;;;;;;13.03;8.40;;;;;;;22.53;49.63;98187.25;5041405;28;20217;-31
2022/10/04 07:13:16;;;;;;;14.07;8.60;;;;;;;22.52;49.83;98186.38;5050784;28;20205;-31
2022/10/04 07:15:50;;;;;;;11.57;8.23;;;;;;;22.52;49.98;98185.50;5044321;28;20239;-31
2022/10/04 07:18:24;;;;;;;10.17;6.80;;;;;;;22.49;48.75;98181.13;5050587;28;20658;-31
2022/10/04 07:20:58;;;;;;;14.73;8.27;;;;;;;22.43;48.44;98174.88;5032796;28;20200;-31
2022/10/04 07:23:27;;;;;;;12.77;7.63;;;;;;;22.51;49.22;98196.56;5040613;28;20211;-31
2022/10/04 07:26:03;;;;;;;12.40;7.70;;;;;;;22.51;49.34;98196.56;5032336;28;20240;-31
2022/10/04 07:31:21;;;;;;;12.53;7.30;;;;;;;22.51;50.19;98204.25;5044786;28;20731;-31
2022/10/04 07:34:00;;;;;;;12.67;7.70;;;;;;;22.43;50.49;98193.69;5048108;28;20211;-31
2022/10/04 07:36:42;;;;;;;13.27;7.30;;;;;;;22.53;50.71;98213.72;5042413;28;20232;-31
2022/10/04 07:39:14;;;;;;;13.20;7.30;;;;;;;22.53;50.58;98218.00;5047869;28;20204;-31
2022/10/04 07:41:48;;;;;;;12.03;6.90;;;;;;;22.53;51.12;98223.13;5043460;28;20215;-31
2022/10/04 07:44:38;;;;;;;14.43;7.93;;;;;;;22.54;51.37;98227.41;5039803;28;20199;-31
2022/10/04 07:47:19;;;;;;;13.30;7.03;;;;;;;22.53;51.22;98216.28;5043828;28;20212;-31
2022/10/04 07:49:47;;;;;;;13.83;7.63;;;;;;;22.53;51.34;98202.63;5046788;28;20208;-31
2022/10/04 07:52:33;;;;;;;12.47;7.40;;;;;;;22.55;51.45;98201.84;5051141;28;20205;-31
2022/10/04 07:55:07;;;;;;;12.83;7.07;;;;;;;22.56;51.68;98205.31;5049512;28;20225;-32
2022/10/04 07:57:55;;;;;;;14.03;7.73;;;;;;;22.57;51.84;98214.72;5048993;28;20219;-31
2022/10/04 08:00:22;;;;;;;14.67;9.63;;;;;;;22.56;50.78;98208.72;5044362;28;20206;-31
2022/10/04 08:03:28;;;;;;;12.50;9.00;;;;;;;22.57;50.60;98207.03;5046836;28;20501;-31
2022/10/04 08:06:04;;;;;;;15.37;8.47;;;;;;;22.55;50.88;98200.97;5048407;28;20220;-31
2022/10/04 08:09:08;;;;;;;17.03;8.57;;;;;;;22.58;51.09;98201.09;5057306;28;20672;-31
2022/10/04 08:12:01;;;;;;;14.83;8.80;;;;;;;22.57;51.08;98187.44;5047063;28;20200;-31
2022/10/04 08:14:45;;;;;;;14.90;8.50;;;;;;;22.58;51.22;98193.41;5047823;28;20201;-31
2022/10/04 08:17:31;;;;;;;15.40;8.10;;;;;;;22.59;51.29;98183.22;5041476;28;20224;-31
2022/10/04 08:20:19;;;;;;;13.50;8.23;;;;;;;22.58;51.43;98184.03;5038771;28;20198;-31
2022/10/04 08:22:58;;;;;;;11.83;8.20;;;;;;;22.58;51.54;98186.59;5051065;28;20204;-31
2022/10/04 08:25:37;;;;;;;13.33;7.67;;;;;;;22.59;51.70;98198.56;5047445;28;20230;-31
2022/10/04 08:31:15;;;;;;;15.27;7.83;;;;;;;22.55;51.66;98188.16;5047139;28;20288;-31
2022/10/04 08:33:58;;;;;;;12.90;7.77;;;;;;;22.59;51.75;98198.56;5046813;28;20243;-31
2022/10/04 08:36:48;;;;;;;12.13;7.53;;;;;;;22.60;51.74;98196.91;5044751;28;20228;-31
2022/10/04 08:39:34;;;;;;;14.43;7.43;;;;;;;22.58;51.85;98178.91;5051152;28;20208;-31
2022/10/04 08:42:15;;;;;;;12.90;7.63;;;;;;;22.61;51.82;98186.72;5045435;28;20200;-31
2022/10/04 08:44:41;;;;;;;9.70;6.57;;;;;;;22.61;51.94;98188.38;5048036;28;20586;-31
2022/10/04 08:47:28;;;;;;;11.13;7.00;;;;;;;22.60;51.97;98184.97;5049637;28;20307;-31
2022/10/04 08:49:57;;;;;;;10.43;7.27;;;;;;;22.60;52.03;98187.53;5044604;28;20212;-31
2022/10/04 08:52:36;;;;;;;11.87;7.23;;;;;;;22.60;52.09;98202.91;5042170;28;20676;-31
2022/10/04 08:55:38;;;;;;;13.90;7.40;;;;;;;22.61;52.07;98202.06;5048726;28;20207;-31
2022/10/04 08:59:05;;;;;;;12.23;7.50;;;;;;;22.61;52.15;98198.63;5047762;28;20197;-31
2022/10/04 09:01:54;;;;;;;11.67;6.83;;;;;;;22.61;52.27;98196.97;5041189;28;20205;-31
2022/10/04 09:04:57;;;;;;;15.07;7.53;;;;;;;22.61;52.32;98201.19;5036469;28;20197;-31
2022/10/04 09:07:48;;;;;;;10.93;6.77;;;;;;;22.52;52.43;98198.31;5047436;28;20251;-31
2022/10/04 09:10:43;;;;;;;12.57;7.57;;;;;;;22.61;52.56;98219.13;5051261;28;20681;-31
2022/10/04 09:13:25;;;;;;;8.33;6.50;;;;;;;21.95;52.40;98104.88;5037231;28;20208;-31
2022/10/04 09:16:10;;;;;;;12.33;6.50;;;;;;;22.61;52.56;98206.31;5049629;28;20232;-31
2022/10/04 09:18:46;;;;;;;11.33;6.67;;;;;;;22.61;52.44;98204.63;5044407;28;20917;-31
2022/10/04 09:21:27;;;;;;;10.37;6.27;;;;;;;22.62;52.38;98206.38;5050806;28;20205;-31
2022/10/04 09:24:03;;;;;;;8.67;6.17;;;;;;;22.62;52.43;98205.53;5049692;28;20292;-31
2022/10/04 09:26:42;;;;;;;11.57;6.67;;;;;;;22.62;52.51;98203.81;5052045;28;20322;-31
2022/10/04 09:29:31;;;;;;;10.77;6.53;;;;;;;22.62;52.50;98193.56;5049716;28;20278;-31
2022/10/04 09:32:29;;;;;;;7.40;6.00;;;;;;;22.62;52.62;98198.69;5052528;28;20201;-31
2022/10/04 09:35:08;;;;;;;8.53;6.40;;;;;;;22.63;52.67;98199.56;5047896;28;20200;-31
2022/10/04 09:37:49;;;;;;;9.47;6.23;;;;;;;22.63;52.65;98194.44;5047639;28;20220;-31
2022/10/04 09:40:28;;;;;;;8.43;6.33;;;;;;;22.64;52.44;98193.63;5046528;28;20212;-31
2022/10/04 09:43:21;;;;;;;8.47;5.97;;;;;;;22.63;52.73;98186.75;5051604;28;20238;-31
2022/10/04 09:46:06;;;;;;;9.80;6.17;;;;;;;22.61;52.71;98185.81;5041261;28;20593;-31
2022/10/04 09:48:55;;;;;;;9.90;5.87;;;;;;;22.63;52.59;98204.69;5043871;28;20208;-31
2022/10/04 09:51:32;;;;;;;9.60;6.10;;;;;;;22.63;52.58;98209.81;5049632;28;20583;-31
2022/10/04 09:54:14;;;;;;;7.27;5.67;;;;;;;22.63;51.89;98207.25;5049737;28;20211;-31
2022/10/04 09:57:00;;;;;;;9.37;6.10;;;;;;;22.63;51.17;98202.13;5040947;28;20231;-31
2022/10/04 09:59:35;;;;;;;7.50;5.17;;;;;;;22.62;51.05;98203.81;5035297;28;20571;-31
2022/10/04 10:02:33;;;;;;;9.47;5.83;;;;;;;22.60;51.09;98189.22;5050059;28;20200;-31
2022/10/04 10:05:32;;;;;;;8.60;5.83;;;;;;;22.62;51.39;98182.47;5043139;28;20548;-31
2022/10/04 10:08:16;;;;;;;7.23;5.13;;;;;;;22.59;51.53;98187.47;5051040;28;20200;-32
2022/10/04 10:14:15;;;;;;;6.67;5.20;;;;;;;22.59;51.52;98184.91;5042927;28;20560;-31
2022/10/04 10:17:06;;;;;;;7.63;4.73;;;;;;;22.60;51.83;98195.22;5044775;28;20232;-31
2022/10/04 10:19:51;;;;;;;8.17;5.23;;;;;;;22.61;51.90;98196.06;5046329;28;20197;-31
2022/10/04 10:22:49;;;;;;;6.83;5.17;;;;;;;22.60;52.03;98202.03;5045537;28;20613;-31
2022/10/04 10:25:34;;;;;;;7.80;5.40;;;;;;;22.60;52.19;98205.47;5044757;28;20710;-31
2022/10/04 10:28:19;;;;;;;7.97;5.57;;;;;;;22.60;52.11;98210.59;5046022;28;20204;-31
2022/10/04 10:31:25;;;;;;;9.30;5.50;;;;;;;22.57;51.73;98197.66;5049585;28;20250;-31
2022/10/04 10:34:04;;;;;;;7.90;5.33;;;;;;;22.60;52.13;98202.91;5048921;28;20200;-31
2022/10/04 10:36:33;;;;;;;8.97;4.87;;;;;;;22.60;52.43;98191.78;5044082;28;20224;-31
2022/10/04 10:39:37;;;;;;;8.17;5.30;;;;;;;22.60;52.42;98195.22;5040704;28;20209;-31
2022/10/04 10:42:26;;;;;;;7.13;5.20;;;;;;;22.60;52.53;98204.59;5047637;28;20210;-31
2022/10/04 10:45:26;;;;;;;8.13;5.03;;;;;;;22.61;52.50;98207.19;5048856;28;20721;-31
2022/10/04 10:48:05;;;;;;;9.27;5.30;;;;;;;22.61;52.63;98201.19;5047351;28;20205;-31
2022/10/04 10:50:31;;;;;;;8.97;4.83;;;;;;;22.59;52.69;98208.81;5047696;28;20580;-31
2022/10/04 10:53:28;;;;;;;12.03;5.73;;;;;;;22.61;52.65;98204.63;5048829;28;20201;-31
2022/10/04 10:56:18;;;;;;;7.07;4.60;;;;;;;22.62;52.67;98192.72;5047805;28;20228;-32
2022/10/04 10:58:50;;;;;;;6.20;5.03;;;;;;;22.62;52.80;98196.13;5048217;28;21200;-31
2022/10/04 11:01:16;;;;;;;8.77;5.83;;;;;;;22.62;52.67;98188.44;5039370;28;20717;-31
2022/10/04 11:03:52;;;;;;;8.23;5.50;;;;;;;22.63;52.81;98187.66;5039082;28;20661;-31
2022/10/04 11:06:48;;;;;;;7.57;5.07;;;;;;;22.63;52.81;98186.75;5040603;28;21008;-31
2022/10/04 11:09:32;;;;;;;7.80;5.20;;;;;;;22.63;52.94;98177.41;5004624;28;20588;-31
2022/10/04 11:12:31;;;;;;;8.63;4.67;;;;;;;22.64;52.95;98173.13;5046304;28;20205;-31
2022/10/04 11:15:23;;;;;;;9.20;5.67;;;;;;;22.64;52.92;98180.81;5017753;28;20233;-31
2022/10/04 11:18:25;;;;;;;6.80;4.70;;;;;;;22.64;52.89;98175.69;5039224;28;20232;-31
2022/10/04 11:21:20;;;;;;;7.93;5.20;;;;;;;22.64;52.95;98173.13;5016393;28;20204;-31
2022/10/04 11:24:13;;;;;;;6.90;4.70;;;;;;;22.63;52.88;98166.25;5036724;28;20201;-31
2022/10/04 11:26:48;;;;;;;7.83;4.93;;;;;;;22.64;52.99;98171.44;5038377;28;20235;-31
2022/10/04 11:29:30;;;;;;;7.90;5.23;;;;;;;22.64;52.97;98171.44;5036511;28;20208;-31
2022/10/04 11:32:11;;;;;;;6.93;5.07;;;;;;;22.65;52.96;98169.75;5036617;28;20216;-31
2022/10/04 11:35:14;;;;;;;6.27;4.63;;;;;;;22.65;52.99;98168.06;5026498;28;20569;-31
2022/10/04 11:37:57;;;;;;;6.03;4.77;;;;;;;22.53;53.15;98154.81;5038769;28;20228;-31
2022/10/04 11:40:32;;;;;;;7.40;4.93;;;;;;;22.65;53.10;98168.06;5040542;28;20204;-31
2022/10/04 11:43:17;;;;;;;7.47;4.83;;;;;;;22.67;53.01;98171.56;5036455;28;20743;-31
2022/10/04 11:46:05;;;;;;;6.07;4.87;;;;;;;22.66;52.94;98163.81;5036147;28;20239;-31
2022/10/04 11:48:54;;;;;;;6.17;4.50;;;;;;;22.65;53.14;98157.81;5038428;28;20706;-31
2022/10/04 11:51:47;;;;;;;6.50;4.00;;;;;;;22.64;52.94;98156.06;5036401;28;20216;-31
2022/10/04 11:54:51;;;;;;;7.03;4.53;;;;;;;22.66;53.12;98161.25;5036031;28;20581;-31
2022/10/04 11:57:33;;;;;;;6.67;4.47;;;;;;;22.66;53.30;98148.44;5036904;28;20408;-31
2022/10/04 12:00:17;;;;;;;7.50;4.80;;;;;;;22.65;53.14;98151.81;5046509;28;20196;-31
2022/10/04 12:03:14;;;;;;;6.20;4.30;;;;;;;22.65;53.21;98145.00;5029275;28;20211;-31
2022/10/04 12:05:48;;;;;;;6.23;4.63;;;;;;;22.65;53.13;98144.13;5042467;28;20776;-32
2022/10/04 12:08:40;;;;;;;6.43;4.50;;;;;;;22.64;53.30;98143.25;5046287;28;20205;-31
2022/10/04 12:11:12;;;;;;;5.83;4.63;;;;;;;22.65;53.40;98132.19;5047516;28;20366;-31
2022/10/04 12:14:22;;;;;;;5.70;4.10;;;;;;;22.65;53.15;98128.75;5036987;28;20216;-31
2022/10/04 12:17:09;;;;;;;5.90;4.50;;;;;;;22.66;53.18;98131.38;5020844;28;20225;-31
2022/10/04 12:20:04;;;;;;;6.53;4.07;;;;;;;22.66;53.25;98122.81;5034590;28;20225;-31
2022/10/04 12:22:43;;;;;;;6.77;4.43;;;;;;;22.65;53.21;98133.88;5033661;28;20220;-31
2022/10/04 12:25:25;;;;;;;5.77;4.00;;;;;;;22.65;53.30;98121.06;5035676;28;20683;-31
2022/10/04 12:28:10;;;;;;;5.50;4.33;;;;;;;22.65;53.24;98124.50;5037292;28;20207;-31
2022/10/04 12:31:01;;;;;;;6.53;4.13;;;;;;;22.63;53.42;98121.03;5035474;28;20687;-31
2022/10/04 12:33:33;;;;;;;5.87;4.37;;;;;;;22.65;53.20;98119.38;5033099;28;20208;-31
2022/10/04 12:36:38;;;;;;;6.53;4.20;;;;;;;22.65;53.22;98116.81;5033073;28;20229;-31
2022/10/04 12:39:05;;;;;;;4.77;3.60;;;;;;;22.66;53.04;98107.44;5026839;28;20205;-31
2022/10/04 12:41:40;;;;;;;5.20;3.93;;;;;;;22.68;53.15;98103.25;5037589;28;20608;-31